createdAt,value
2023-01-05T08:31:41.728Z,12.90
2023-01-05T08:40:27.672Z,12.90
2023-01-05T08:44:41.332Z,12.90
2023-01-05T08:48:57.465Z,12.90
2023-01-05T08:53:07.195Z,13.00
2023-01-05T09:01:49.249Z,13.00
2023-01-05T09:06:04.530Z,13.00
2023-01-05T09:10:14.258Z,13.10
2023-01-05T09:14:25.472Z,13.10
2023-01-05T09:18:41.609Z,13.10
2023-01-05T09:23:02.009Z,13.10
2023-01-05T09:27:13.142Z,13.10
2023-01-05T09:31:24.443Z,13.20
2023-01-05T09:35:38.312Z,13.20
2023-01-05T09:40:00.985Z,13.30
2023-01-05T09:44:31.710Z,13.30
2023-01-05T09:48:44.652Z,13.30
2023-01-05T09:53:02.007Z,13.40
2023-01-05T09:57:19.252Z,13.40
2023-01-05T10:01:28.621Z,13.40
2023-01-05T10:05:41.264Z,13.50
2023-01-05T10:09:51.534Z,13.50
2023-01-05T10:14:39.651Z,13.60
2023-01-05T10:38:52.408Z,13.60
2023-01-05T10:43:34.031Z,13.60
2023-01-05T10:47:54.120Z,13.50
2023-01-05T10:52:09.936Z,13.50
2023-01-05T10:56:45.268Z,13.70
2023-01-05T11:01:02.998Z,13.70
2023-01-05T11:10:39.032Z,13.60
2023-01-05T11:14:58.191Z,13.70
2023-01-05T11:19:18.053Z,13.60
2023-01-05T11:23:37.407Z,13.70
2023-01-05T11:50:56.549Z,14.00
2023-01-05T11:55:40.959Z,14.00
2023-01-05T11:59:52.250Z,14.00
2023-01-05T12:04:48.659Z,13.90
2023-01-05T12:09:07.112Z,13.70
2023-01-05T12:13:51.712Z,13.50
2023-01-05T12:18:24.334Z,13.40
2023-01-05T12:23:04.253Z,13.30
2023-01-05T12:27:38.345Z,13.30
2023-01-05T12:37:27.312Z,13.20
2023-01-05T12:47:06.931Z,13.30
2023-01-05T12:51:21.337Z,13.40
2023-01-05T12:55:39.366Z,13.60
2023-01-05T12:59:58.076Z,13.80
2023-01-05T13:04:16.594Z,14.00
2023-01-05T13:08:34.508Z,14.30
2023-01-05T13:12:45.432Z,14.30
2023-01-05T13:16:58.753Z,14.40
2023-01-05T13:21:14.718Z,14.30
2023-01-05T13:25:27.094Z,14.20
2023-01-05T13:29:43.612Z,14.00
2023-01-05T13:34:17.727Z,14.10
2023-01-05T13:39:13.003Z,14.10
2023-01-05T13:43:46.861Z,14.20
2023-01-05T13:48:34.076Z,14.30
2023-01-05T13:53:06.051Z,14.30
2023-01-05T13:57:20.491Z,14.40
2023-01-05T14:01:39.011Z,14.40
2023-01-05T14:05:55.295Z,14.30
2023-01-05T14:10:07.201Z,14.30
2023-01-05T14:18:53.213Z,14.30
2023-01-05T14:23:05.997Z,14.30
2023-01-05T14:27:16.392Z,14.20
2023-01-05T14:31:40.061Z,14.20
2023-01-05T14:35:55.096Z,14.20
2023-01-05T14:40:24.070Z,14.10
2023-01-05T14:44:38.532Z,13.90
2023-01-05T14:49:00.110Z,13.90
2023-01-05T14:53:18.683Z,14.00
2023-01-05T14:57:53.110Z,14.20
2023-01-05T15:02:16.710Z,14.00
2023-01-05T15:06:37.930Z,14.00
2023-01-05T15:11:00.350Z,14.00
2023-01-05T15:15:27.049Z,14.00
2023-01-05T15:19:49.931Z,14.00
2023-01-05T15:24:31.174Z,13.90
2023-01-05T15:29:11.769Z,13.80
2023-01-05T15:33:57.774Z,13.70
2023-01-05T15:38:22.596Z,13.70
2023-01-05T15:42:39.551Z,13.60
2023-01-05T15:46:50.809Z,13.60
2023-01-05T15:51:03.694Z,13.50
2023-01-05T15:55:19.409Z,13.40
2023-01-05T15:59:32.393Z,13.40
2023-01-05T16:03:43.959Z,13.30
2023-01-05T16:07:58.108Z,13.40
2023-01-05T16:12:23.565Z,13.30
2023-01-05T16:16:51.728Z,13.30
2023-01-05T16:21:06.566Z,13.30
2023-01-05T16:25:20.934Z,13.20
2023-01-05T16:29:41.106Z,13.20
2023-01-05T16:34:03.732Z,13.10
2023-01-05T16:38:27.572Z,13.10
2023-01-05T16:42:50.727Z,13.10
2023-01-05T16:47:08.361Z,13.10
2023-01-05T16:51:19.430Z,13.10
2023-01-05T16:55:32.279Z,13.10
2023-01-05T16:59:48.085Z,13.10
2023-01-05T17:03:57.481Z,13.10
2023-01-05T17:08:08.009Z,13.00
2023-01-05T17:12:17.390Z,13.00
2023-01-05T17:16:28.189Z,13.00
2023-01-05T17:20:42.663Z,12.90
2023-01-05T17:24:53.454Z,12.90
2023-01-05T17:29:37.510Z,13.00
2023-01-05T17:33:50.122Z,12.90
2023-01-05T17:38:01.988Z,12.80
2023-01-05T17:42:25.428Z,12.80
2023-01-05T17:46:38.406Z,12.80
2023-01-05T17:50:50.995Z,12.80
2023-01-05T17:55:13.493Z,12.90
2023-01-05T17:59:24.049Z,12.90
2023-01-05T18:03:33.230Z,12.80
2023-01-05T18:07:44.511Z,12.80
2023-01-05T18:11:53.804Z,12.80
2023-01-05T18:16:08.438Z,12.80
2023-01-05T18:20:19.970Z,12.80
2023-01-05T18:24:32.375Z,12.80
2023-01-05T18:28:41.757Z,12.90
2023-01-05T18:32:51.274Z,12.90
2023-01-05T18:37:05.850Z,12.90
2023-01-05T18:41:26.467Z,12.90
2023-01-05T18:45:40.082Z,12.90
2023-01-05T18:49:50.287Z,12.90
2023-01-05T18:54:00.151Z,12.80
2023-01-05T18:58:11.991Z,12.70
2023-01-05T19:02:23.412Z,12.60
2023-01-05T19:06:32.672Z,12.60
2023-01-05T19:10:48.332Z,12.50
2023-01-05T19:15:01.224Z,12.40
2023-01-05T19:19:15.692Z,12.40
2023-01-05T19:23:27.536Z,12.40
2023-01-05T19:27:47.377Z,12.50
2023-01-05T19:31:58.794Z,12.60
2023-01-05T19:36:10.970Z,12.60
2023-01-05T19:40:20.504Z,12.70
2023-01-05T19:44:32.924Z,12.70
2023-01-05T19:48:46.873Z,12.70
2023-01-05T19:52:56.367Z,12.70
2023-01-05T19:57:18.432Z,12.60
2023-01-05T20:01:29.527Z,12.60
2023-01-05T20:05:45.130Z,12.60
2023-01-05T20:09:55.792Z,12.60
2023-01-05T20:14:09.187Z,12.60
2023-01-05T20:18:19.451Z,12.70
2023-01-05T20:22:30.698Z,12.70
2023-01-05T20:26:41.252Z,12.70
2023-01-05T20:30:51.078Z,12.80
2023-01-05T20:35:03.196Z,12.80
2023-01-05T20:39:53.770Z,12.80
2023-01-05T20:44:09.867Z,12.80
2023-01-05T20:53:17.077Z,12.80
2023-01-05T20:57:29.622Z,12.80
2023-01-05T21:01:46.838Z,12.80
2023-01-05T21:05:56.817Z,12.80
2023-01-05T21:29:48.594Z,12.90
2023-01-05T21:33:59.083Z,12.90
2023-01-05T21:38:10.755Z,12.90
2023-01-05T21:42:40.703Z,12.90
2023-01-05T21:47:07.241Z,12.90
2023-01-05T21:56:14.035Z,12.90
2023-01-05T22:00:27.922Z,13.00
2023-01-05T22:04:40.981Z,13.00
2023-01-05T22:08:51.079Z,13.00
2023-01-05T22:13:10.458Z,12.90
2023-01-05T22:17:21.596Z,12.90
2023-01-05T22:21:33.704Z,12.90
2023-01-05T22:25:44.157Z,13.00
2023-01-05T22:29:55.097Z,13.00
2023-01-05T22:39:00.272Z,12.90
2023-01-05T22:43:11.414Z,12.90
2023-01-05T22:47:22.418Z,12.90
2023-01-05T22:51:36.197Z,12.90
2023-01-05T22:55:51.680Z,13.00
2023-01-05T23:00:01.320Z,13.00
2023-01-05T23:04:16.158Z,13.00
2023-01-05T23:08:26.959Z,13.00
2023-01-05T23:12:39.529Z,13.00
2023-01-05T23:16:50.240Z,13.00
2023-01-05T23:21:03.280Z,13.00
2023-01-05T23:25:16.898Z,13.00
2023-01-05T23:29:31.417Z,13.00
2023-01-05T23:33:44.678Z,13.00
2023-01-05T23:37:56.915Z,12.90
2023-01-05T23:42:06.540Z,12.90
2023-01-05T23:46:20.571Z,12.90
2023-01-05T23:50:33.076Z,12.90
2023-01-05T23:54:44.415Z,12.90
2023-01-05T23:59:05.354Z,13.00
